createdAt,value
2022-09-07T00:02:28.764Z,65.73
2022-09-07T00:05:21.915Z,65.60
2022-09-07T00:08:14.556Z,65.78
2022-09-07T00:11:08.472Z,65.81
2022-09-07T00:14:00.081Z,66.01
2022-09-07T00:16:52.215Z,66.04
2022-09-07T00:19:43.799Z,66.06
2022-09-07T00:22:37.686Z,66.04
2022-09-07T00:25:31.955Z,65.81
2022-09-07T00:28:23.814Z,65.87
2022-09-07T00:31:16.858Z,65.54
2022-09-07T00:34:08.804Z,65.81
2022-09-07T00:37:00.546Z,65.60
2022-09-07T00:39:54.027Z,65.93
2022-09-07T00:42:45.711Z,65.80
2022-09-07T00:45:37.532Z,65.99
2022-09-07T00:48:34.718Z,65.79
2022-09-07T00:51:30.455Z,65.67
2022-09-07T00:54:26.979Z,65.69
2022-09-07T00:57:21.139Z,65.55
2022-09-07T01:00:13.157Z,65.56
2022-09-07T01:03:06.485Z,66.05
2022-09-07T01:06:03.452Z,66.36
2022-09-07T01:08:57.727Z,66.37
2022-09-07T01:11:51.027Z,66.72
2022-09-07T01:14:48.062Z,66.58
2022-09-07T01:18:00.208Z,66.13
2022-09-07T01:21:10.090Z,66.19
2022-09-07T01:24:34.181Z,65.73
2022-09-07T01:27:55.458Z,65.87
2022-09-07T01:30:55.355Z,66.08
2022-09-07T01:33:58.559Z,65.81
2022-09-07T01:36:56.136Z,66.07
2022-09-07T01:39:53.995Z,65.97
2022-09-07T01:42:52.392Z,65.89
2022-09-07T01:45:46.544Z,66.16
2022-09-07T01:48:41.845Z,65.92
2022-09-07T01:51:37.135Z,65.56
2022-09-07T01:54:33.848Z,65.78
2022-09-07T01:57:32.677Z,65.24
2022-09-07T02:00:24.317Z,64.95
2022-09-07T02:03:21.134Z,65.53
2022-09-07T02:06:18.196Z,65.45
2022-09-07T02:09:15.955Z,64.90
2022-09-07T02:12:17.003Z,64.80
2022-09-07T02:15:14.326Z,64.77
2022-09-07T02:18:08.561Z,64.63
2022-09-07T02:21:02.797Z,64.70
2022-09-07T02:24:01.827Z,65.06
2022-09-07T02:26:56.900Z,64.92
2022-09-07T02:29:48.878Z,64.73
2022-09-07T02:32:40.589Z,64.64
2022-09-07T02:35:32.513Z,64.94
2022-09-07T02:38:24.723Z,64.79
2022-09-07T02:41:36.130Z,64.93
2022-09-07T02:44:31.728Z,65.05
2022-09-07T02:47:38.774Z,65.11
2022-09-07T02:51:08.329Z,64.66
2022-09-07T02:54:25.363Z,65.12
2022-09-07T02:57:27.438Z,65.25
2022-09-07T03:00:25.920Z,65.17
2022-09-07T03:03:24.642Z,65.47
2022-09-07T03:06:24.463Z,64.88
2022-09-07T03:09:19.887Z,64.77
2022-09-07T03:12:12.541Z,64.93
2022-09-07T03:15:06.954Z,65.19
2022-09-07T03:17:58.299Z,64.70
2022-09-07T03:20:50.356Z,65.35
2022-09-07T03:23:42.206Z,65.81
2022-09-07T03:26:34.058Z,65.49
2022-09-07T03:29:25.652Z,65.78
2022-09-07T03:32:18.623Z,65.64
2022-09-07T03:35:10.914Z,65.68
2022-09-07T03:38:02.926Z,65.83
2022-09-07T03:40:59.839Z,65.83
2022-09-07T03:43:51.359Z,65.80
2022-09-07T03:46:44.242Z,66.00
2022-09-07T03:49:37.243Z,65.95
2022-09-07T03:52:28.680Z,66.10
2022-09-07T03:55:20.525Z,66.47
2022-09-07T03:58:12.183Z,66.37
2022-09-07T04:01:07.568Z,66.08
2022-09-07T04:04:02.819Z,66.69
2022-09-07T04:06:56.322Z,66.46
2022-09-07T04:09:51.250Z,66.23
2022-09-07T04:12:43.252Z,66.99
2022-09-07T04:15:35.254Z,66.51
2022-09-07T04:18:27.460Z,67.13
2022-09-07T04:21:19.766Z,66.66
2022-09-07T04:24:13.062Z,66.73
2022-09-07T04:27:04.638Z,66.34
2022-09-07T04:29:56.223Z,65.99
2022-09-07T04:32:48.522Z,66.73
2022-09-07T04:35:41.003Z,66.63
2022-09-07T04:38:32.555Z,67.04
2022-09-07T04:41:26.231Z,66.84
2022-09-07T04:44:17.793Z,66.72
2022-09-07T04:47:09.380Z,66.94
2022-09-07T04:50:01.161Z,66.73
2022-09-07T04:52:52.687Z,66.58
2022-09-07T04:55:44.204Z,66.88
2022-09-07T04:58:37.237Z,66.68
2022-09-07T05:01:29.568Z,66.57
2022-09-07T05:04:21.462Z,66.69
2022-09-07T05:07:12.897Z,66.44
2022-09-07T05:10:05.496Z,66.54
2022-09-07T05:12:57.035Z,66.14
2022-09-07T05:15:50.501Z,66.12
2022-09-07T05:18:42.638Z,65.92
2022-09-07T05:21:35.515Z,66.85
2022-09-07T05:24:27.553Z,66.77
2022-09-07T05:27:19.622Z,66.46
2022-09-07T05:36:38.186Z,66.36
2022-09-07T05:39:30.323Z,66.55
2022-09-07T05:42:22.736Z,66.58
2022-09-07T05:45:14.740Z,66.53
2022-09-07T05:48:06.180Z,66.72
2022-09-07T05:50:59.376Z,66.51
2022-09-07T05:53:51.393Z,65.87
2022-09-07T05:56:43.396Z,65.92
2022-09-07T05:59:35.356Z,65.96
2022-09-07T06:02:27.113Z,66.15
2022-09-07T06:05:18.922Z,66.66
2022-09-07T06:08:12.136Z,66.43
2022-09-07T06:11:06.687Z,66.19
2022-09-07T06:13:58.533Z,66.23
2022-09-07T06:16:50.673Z,66.18
2022-09-07T06:19:42.564Z,66.61
2022-09-07T06:22:36.348Z,66.08
2022-09-07T06:25:29.816Z,66.49
2022-09-07T06:28:21.476Z,66.79
2022-09-07T06:31:15.959Z,67.81
2022-09-07T06:34:08.939Z,68.83
2022-09-07T06:37:00.707Z,70.89
2022-09-07T06:39:52.373Z,71.28
2022-09-07T06:42:45.897Z,71.98
2022-09-07T06:45:37.743Z,72.03
2022-09-07T06:48:30.223Z,72.38
2022-09-07T06:51:26.703Z,73.92
2022-09-07T06:57:30.439Z,74.52
2022-09-07T07:00:23.596Z,75.45
2022-09-07T07:03:15.261Z,79.17
2022-09-07T07:06:07.565Z,81.79
2022-09-07T07:08:59.094Z,87.51
2022-09-07T07:11:50.920Z,88.81
2022-09-07T07:14:45.025Z,94.20
2022-09-07T07:17:38.811Z,98.24
2022-09-07T07:20:30.319Z,100.00
2022-09-07T07:23:21.849Z,100.00
2022-09-07T07:26:15.872Z,100.00
2022-09-07T07:29:07.703Z,100.00
2022-09-07T07:31:59.186Z,100.00
2022-09-07T07:34:52.122Z,100.00
2022-09-07T07:37:43.807Z,100.00
2022-09-07T07:40:37.604Z,100.00
2022-09-07T07:43:31.580Z,100.00
2022-09-07T07:46:25.085Z,100.00
2022-09-07T07:49:17.070Z,100.00
2022-09-07T07:58:34.934Z,100.00
2022-09-07T08:01:26.478Z,100.00
2022-09-07T08:04:18.503Z,100.00
2022-09-07T08:07:12.970Z,100.00
2022-09-07T08:10:04.913Z,100.00
2022-09-07T08:12:57.368Z,100.00
2022-09-07T08:15:49.135Z,100.00
2022-09-07T08:18:46.360Z,100.00
2022-09-07T08:21:38.883Z,100.00
2022-09-07T08:24:32.234Z,100.00
2022-09-07T08:27:24.189Z,100.00
2022-09-07T08:30:16.072Z,100.00
2022-09-07T08:33:07.655Z,100.00
2022-09-07T08:36:01.118Z,100.00
2022-09-07T08:38:52.987Z,100.00
2022-09-07T08:42:19.064Z,100.00
2022-09-07T08:45:15.736Z,100.00
2022-09-07T08:48:08.155Z,100.00
2022-09-07T08:51:05.274Z,100.00
2022-09-07T08:53:57.383Z,100.00
2022-09-07T09:00:08.671Z,100.00
2022-09-07T09:06:20.283Z,100.00
2022-09-07T09:09:22.917Z,100.00
2022-09-07T09:12:25.001Z,100.00
2022-09-07T09:15:22.161Z,100.00
2022-09-07T09:18:24.742Z,100.00
2022-09-07T09:21:19.850Z,100.00
2022-09-07T09:24:15.771Z,100.00
2022-09-07T09:27:07.753Z,100.00
2022-09-07T09:29:59.141Z,100.00
2022-09-07T09:33:12.412Z,100.00
2022-09-07T09:36:04.108Z,100.00
2022-09-07T09:38:56.355Z,100.00
2022-09-07T09:41:49.395Z,100.00
2022-09-07T09:44:43.338Z,100.00
2022-09-07T09:47:36.975Z,100.00
2022-09-07T09:53:54.425Z,94.67
2022-09-07T09:56:48.975Z,93.17
2022-09-07T09:59:57.976Z,94.06
2022-09-07T10:06:19.715Z,93.31
2022-09-07T10:09:21.423Z,92.94
2022-09-07T10:12:26.680Z,92.11
2022-09-07T10:15:27.335Z,89.25
2022-09-07T10:18:22.027Z,89.08
2022-09-07T10:21:26.411Z,88.65
2022-09-07T10:24:26.120Z,87.48
2022-09-07T10:27:29.281Z,87.10
2022-09-07T10:30:21.046Z,85.85
2022-09-07T10:33:19.327Z,86.74
2022-09-07T10:36:16.453Z,85.28
2022-09-07T10:39:15.619Z,85.04
2022-09-07T10:42:12.343Z,85.85
2022-09-07T10:45:16.146Z,86.00
2022-09-07T10:48:15.136Z,85.61
2022-09-07T10:51:14.387Z,84.04
2022-09-07T10:54:34.568Z,85.11
2022-09-07T10:57:39.650Z,82.18
2022-09-07T11:00:39.376Z,83.24
2022-09-07T11:03:50.011Z,82.98
2022-09-07T11:06:44.181Z,80.81
2022-09-07T11:09:52.884Z,80.19
2022-09-07T11:12:45.968Z,80.24
2022-09-07T11:15:44.141Z,81.08
2022-09-07T11:18:40.588Z,80.54
2022-09-07T11:28:17.581Z,79.37
2022-09-07T11:31:19.611Z,78.40
2022-09-07T11:34:26.283Z,78.75
2022-09-07T11:37:23.031Z,77.69
2022-09-07T11:40:23.596Z,77.24
2022-09-07T11:43:21.689Z,75.99
2022-09-07T11:46:18.308Z,76.39
2022-09-07T11:49:17.334Z,76.67
2022-09-07T11:52:20.090Z,76.07
2022-09-07T11:55:19.684Z,74.98
2022-09-07T11:58:35.828Z,74.19
2022-09-07T12:01:37.976Z,73.46
2022-09-07T12:05:00.474Z,74.15
2022-09-07T12:08:15.355Z,72.74
2022-09-07T12:11:24.267Z,72.83
2022-09-07T12:14:26.666Z,71.38
2022-09-07T12:17:33.736Z,70.87
2022-09-07T12:20:38.979Z,72.15
2022-09-07T12:23:32.463Z,72.24
2022-09-07T12:26:52.508Z,70.84
2022-09-07T12:29:45.784Z,70.46
2022-09-07T12:33:04.403Z,69.93
2022-09-07T12:35:58.920Z,70.21
2022-09-07T12:39:07.311Z,69.00
2022-09-07T12:42:38.174Z,68.92
2022-09-07T12:45:51.427Z,69.24
2022-09-07T12:48:51.796Z,69.00
2022-09-07T12:52:15.186Z,68.39
2022-09-07T12:55:29.266Z,69.70
2022-09-07T12:58:36.718Z,67.48
2022-09-07T13:01:37.651Z,68.27
2022-09-07T13:04:52.631Z,68.55
2022-09-07T13:08:09.102Z,70.18
2022-09-07T13:11:18.009Z,68.63
2022-09-07T13:14:21.032Z,69.07
2022-09-07T13:17:43.162Z,69.57
2022-09-07T13:20:39.859Z,69.58
2022-09-07T13:23:34.199Z,69.77
2022-09-07T13:26:53.635Z,70.81
2022-09-07T13:29:50.696Z,70.31
2022-09-07T13:35:59.017Z,71.24
2022-09-07T13:38:51.853Z,71.28
2022-09-07T13:41:47.684Z,70.28
2022-09-07T13:44:40.061Z,70.58
2022-09-07T13:47:53.960Z,70.17
2022-09-07T13:50:53.564Z,70.08
2022-09-07T13:53:57.611Z,71.23
2022-09-07T13:56:57.937Z,72.10
2022-09-07T13:59:52.840Z,71.66
2022-09-07T14:02:45.391Z,71.93
2022-09-07T14:05:38.606Z,72.03
2022-09-07T14:08:32.012Z,71.84
2022-09-07T14:11:26.019Z,71.86
2022-09-07T14:14:20.373Z,71.52
2022-09-07T14:17:16.158Z,72.05
2022-09-07T14:20:15.507Z,72.15
2022-09-07T14:23:17.122Z,73.52
2022-09-07T14:26:16.594Z,73.97
2022-09-07T14:29:23.314Z,73.80
2022-09-07T14:32:18.774Z,74.60
2022-09-07T14:35:12.585Z,74.19
2022-09-07T14:38:08.215Z,73.58
2022-09-07T14:41:03.569Z,73.41
2022-09-07T14:43:56.750Z,71.88
2022-09-07T14:46:54.646Z,72.31
2022-09-07T14:49:52.073Z,71.82
2022-09-07T14:53:33.900Z,72.56
2022-09-07T14:56:04.008Z,73.31
2022-09-07T14:58:55.768Z,73.91
2022-09-07T15:01:47.695Z,74.30
2022-09-07T15:04:39.723Z,74.94
2022-09-07T15:07:38.972Z,75.48
2022-09-07T15:10:36.892Z,74.52
2022-09-07T15:13:34.217Z,74.15
2022-09-07T15:16:28.332Z,73.55
2022-09-07T15:19:31.418Z,74.33
2022-09-07T15:22:23.369Z,74.12
2022-09-07T15:25:15.324Z,74.52
2022-09-07T15:28:07.459Z,74.10
2022-09-07T15:34:13.631Z,74.93
2022-09-07T15:38:00.950Z,75.79
2022-09-07T15:40:20.604Z,76.33
2022-09-07T15:43:20.359Z,75.40
2022-09-07T15:46:14.657Z,75.18
2022-09-07T15:49:06.486Z,75.46
2022-09-07T15:52:05.510Z,75.36
2022-09-07T15:54:57.651Z,75.78
2022-09-07T15:57:54.566Z,75.31
2022-09-07T16:01:51.523Z,75.46
2022-09-07T16:04:04.671Z,76.45
2022-09-07T16:06:56.740Z,76.85
2022-09-07T16:09:48.927Z,75.89
2022-09-07T16:13:01.172Z,75.15
2022-09-07T16:15:54.209Z,75.45
2022-09-07T16:18:47.194Z,74.81
2022-09-07T16:21:41.059Z,75.40
2022-09-07T16:24:34.040Z,75.11
2022-09-07T16:27:28.111Z,75.05
2022-09-07T16:30:22.301Z,75.36
2022-09-07T16:33:14.266Z,75.04
2022-09-07T16:36:09.176Z,75.02
2022-09-07T16:39:03.075Z,74.89
2022-09-07T16:41:55.061Z,74.94
2022-09-07T16:44:46.826Z,75.18
2022-09-07T16:47:38.431Z,76.05
2022-09-07T16:50:29.913Z,76.36
2022-09-07T16:53:21.795Z,76.39
2022-09-07T16:56:17.004Z,76.89
2022-09-07T16:59:10.228Z,76.74
2022-09-07T17:02:02.168Z,77.16
2022-09-07T17:04:53.727Z,77.01
2022-09-07T17:07:45.096Z,77.05
2022-09-07T17:10:36.918Z,78.18
2022-09-07T17:13:31.341Z,78.36
2022-09-07T17:16:24.860Z,79.16
2022-09-07T17:19:32.671Z,80.76
2022-09-07T17:22:26.312Z,82.25
2022-09-07T17:25:18.135Z,82.69
2022-09-07T17:28:10.173Z,84.10
2022-09-07T17:31:07.956Z,84.79
2022-09-07T17:34:01.467Z,85.45
2022-09-07T17:36:52.888Z,86.22
2022-09-07T17:39:44.554Z,86.67
2022-09-07T17:45:47.891Z,86.67
2022-09-07T17:48:40.597Z,87.33
2022-09-07T17:51:33.438Z,88.21
2022-09-07T17:54:25.852Z,89.18
2022-09-07T17:57:17.575Z,90.03
2022-09-07T18:00:11.859Z,90.86
2022-09-07T18:03:04.004Z,91.58
2022-09-07T18:05:57.237Z,92.44
2022-09-07T18:08:49.651Z,92.83
2022-09-07T18:11:47.153Z,93.32
2022-09-07T18:14:39.695Z,93.93
2022-09-07T18:17:32.032Z,93.94
2022-09-07T18:20:24.292Z,94.47
2022-09-07T18:23:17.265Z,95.08
2022-09-07T18:26:09.437Z,95.47
2022-09-07T18:29:08.390Z,96.06
2022-09-07T18:32:08.942Z,96.36
2022-09-07T18:35:01.116Z,97.08
2022-09-07T18:37:52.896Z,97.82
2022-09-07T18:40:45.562Z,98.11
2022-09-07T18:43:38.932Z,98.41
2022-09-07T18:46:30.557Z,99.06
2022-09-07T18:49:22.496Z,99.33
2022-09-07T18:55:25.702Z,100.00
2022-09-07T18:58:18.713Z,100.00
2022-09-07T19:01:12.988Z,100.00
2022-09-07T19:04:05.954Z,100.00
2022-09-07T19:06:57.795Z,100.00
2022-09-07T19:09:49.356Z,100.00
2022-09-07T19:12:45.473Z,100.00
2022-09-07T19:15:39.005Z,100.00
2022-09-07T19:18:30.538Z,100.00
2022-09-07T19:21:24.130Z,100.00
2022-09-07T19:24:18.250Z,100.00
2022-09-07T19:27:09.698Z,100.00
2022-09-07T19:30:01.734Z,100.00
2022-09-07T19:32:54.866Z,100.00
2022-09-07T19:35:46.874Z,100.00
2022-09-07T19:38:38.418Z,100.00
2022-09-07T19:41:30.342Z,100.00
2022-09-07T19:44:21.754Z,100.00
2022-09-07T19:47:13.678Z,100.00
2022-09-07T19:50:07.530Z,100.00
2022-09-07T19:52:59.359Z,100.00
2022-09-07T19:55:51.006Z,100.00
2022-09-07T19:58:44.374Z,100.00
2022-09-07T20:01:36.439Z,100.00
2022-09-07T20:04:28.344Z,100.00
2022-09-07T20:07:21.299Z,100.00
2022-09-07T20:10:12.980Z,100.00
2022-09-07T20:13:04.770Z,100.00
2022-09-07T20:15:56.631Z,100.00
2022-09-07T20:18:48.758Z,100.00
2022-09-07T20:21:40.530Z,100.00
2022-09-07T20:24:35.237Z,100.00
2022-09-07T20:27:26.693Z,100.00
2022-09-07T20:30:18.720Z,100.00
2022-09-07T20:33:10.386Z,100.00
2022-09-07T20:36:05.452Z,100.00
2022-09-07T20:38:57.895Z,100.00
2022-09-07T20:41:50.971Z,100.00
2022-09-07T20:44:42.855Z,100.00
2022-09-07T20:47:34.235Z,100.00
2022-09-07T20:50:26.126Z,100.00
2022-09-07T20:53:17.672Z,100.00
2022-09-07T20:56:12.513Z,100.00
2022-09-07T20:59:06.781Z,100.00
2022-09-07T21:01:58.606Z,100.00
2022-09-07T21:04:49.966Z,100.00
2022-09-07T21:07:42.257Z,100.00
2022-09-07T21:10:33.960Z,100.00
2022-09-07T21:13:25.890Z,100.00
2022-09-07T21:16:18.932Z,100.00
2022-09-07T21:19:12.077Z,100.00
2022-09-07T21:22:03.667Z,100.00
2022-09-07T21:24:55.226Z,100.00
2022-09-07T21:27:46.679Z,100.00
2022-09-07T21:30:38.298Z,100.00
2022-09-07T21:33:34.926Z,100.00
2022-09-07T21:36:27.679Z,100.00
2022-09-07T21:39:20.833Z,100.00
2022-09-07T21:42:12.636Z,100.00
2022-09-07T21:45:04.440Z,100.00
2022-09-07T21:47:56.091Z,100.00
2022-09-07T21:50:49.055Z,100.00
2022-09-07T21:53:40.745Z,100.00
2022-09-07T21:56:32.718Z,100.00
2022-09-07T21:59:24.263Z,100.00
2022-09-07T22:02:15.675Z,100.00
2022-09-07T22:05:08.108Z,100.00
2022-09-07T22:08:00.865Z,100.00
2022-09-07T22:10:52.561Z,100.00
2022-09-07T22:13:44.748Z,100.00
2022-09-07T22:16:36.528Z,100.00
2022-09-07T22:19:27.838Z,100.00
2022-09-07T22:22:19.684Z,100.00
2022-09-07T22:25:12.284Z,100.00
2022-09-07T22:28:04.283Z,100.00
2022-09-07T22:30:56.066Z,100.00
2022-09-07T22:33:49.407Z,100.00
2022-09-07T22:36:43.090Z,100.00
2022-09-07T22:39:34.753Z,100.00
2022-09-07T22:42:27.455Z,100.00
2022-09-07T22:45:19.368Z,100.00
2022-09-07T22:48:11.018Z,100.00
2022-09-07T22:51:03.624Z,100.00
2022-09-07T22:53:56.226Z,100.00
2022-09-07T22:56:47.868Z,100.00
2022-09-07T22:59:40.759Z,100.00
2022-09-07T23:02:32.686Z,100.00
2022-09-07T23:05:24.412Z,100.00
2022-09-07T23:08:16.351Z,100.00
2022-09-07T23:11:07.992Z,100.00
2022-09-07T23:14:01.896Z,100.00
2022-09-07T23:16:54.908Z,100.00
2022-09-07T23:19:46.475Z,100.00
2022-09-07T23:22:37.805Z,100.00
2022-09-07T23:25:29.883Z,100.00
2022-09-07T23:28:21.378Z,100.00
2022-09-07T23:31:13.627Z,100.00
2022-09-07T23:34:06.811Z,100.00
2022-09-07T23:36:58.252Z,100.00
2022-09-07T23:39:49.697Z,100.00
2022-09-07T23:42:41.661Z,100.00
2022-09-07T23:45:33.223Z,100.00
2022-09-07T23:48:25.116Z,100.00
2022-09-07T23:51:23.576Z,100.00
2022-09-07T23:54:15.840Z,100.00
2022-09-07T23:57:07.194Z,100.00
2022-09-07T23:59:59.200Z,100.00
